KTCC

Tucumcari Municipal Airport

Tucumcari, New Mexico, USA
KTCC 201724Z 2018/2118 16022G32KT P6SM VCSH OVC050 TEMPO 2020/2023 VRB20G35KT -TSRA BKN050CB FM202300 22018G25KT P6SM SCT045 BKN070 FM210100 05010KT P6SM SCT070 FM210600 33008KT P6SM BKN100 FM211500 35010KT P6SM SCT100
Issued Valid From Valid To
Apr-20 @ 17:24 UTC
(an hour ago)
Apr-20 @ 18:00 UTC
(40 minutes ago)
Apr-21 @ 18:00 UTC
(in 23 hours)
Apr-20 @ 18:00 to Apr-20 @ 23:00
KTCC 201724Z 2018/2118 16022G32KT P6SM VCSH OVC050
Wind Visibility Clouds
160° at 22 knots
 Gusting to 32 knots
Greater than 6 miles
  • Overcast at 5,000' AGL
Temporary Apr-20 @ 20:00 to Apr-20 @ 23:00
TEMPO 2020/2023 VRB20G35KT -TSRA BKN050CB
Wind Clouds Conditions
Variable at 20 knots
 Gusting to 35 knots
  • Broken at 5,000' AGL
  • Light Thunderstorm
  • Light Rain
From Apr-20 @ 23:00 to Apr-21 @ 01:00
FM202300 22018G25KT P6SM SCT045 BKN070
Wind Visibility Clouds
220° at 18 knots
 Gusting to 25 knots
Greater than 6 miles
  • Scattered at 4,500' AGL
  • Broken at 7,000' AGL
From Apr-21 @ 01:00 to Apr-21 @ 06:00
FM210100 05010KT P6SM SCT070
Wind Visibility Clouds
50° at 10 knots Greater than 6 miles
  • Scattered at 7,000' AGL
From Apr-21 @ 06:00 to Apr-21 @ 15:00
FM210600 33008KT P6SM BKN100
Wind Visibility Clouds
330° at 8 knots Greater than 6 miles
  • Broken at 10,000' AGL
From Apr-21 @ 15:00 to Apr-21 @ 18:00
FM211500 35010KT P6SM SCT100
Wind Visibility Clouds
350° at 10 knots Greater than 6 miles
  • Scattered at 10,000' AGL
KTCC 201724Z 2018/2118 16022G32KT P6SM VCSH OVC050 TEMPO 2020/2023 VRB20G35KT -TSRA BKN050CB FM202300 22018G25KT P6SM SCT045 BKN070 FM210100 05010KT P6SM SCT070 FM210600 33008KT P6SM BKN100 FM211500 35010KT P6SM SCT100
Issued Apr-20 @ 17:24 UTC
(an hour ago)
Valid From Apr-20 @ 18:00 UTC
(40 minutes ago)
Valid To Apr-21 @ 18:00 UTC
(in 23 hours)
Apr-20 @ 18:00 - Apr-20 @ 23:00
Wind Visibility
160° at 22 knots
 Gusting to 32 knots
Greater than 6 miles
Clouds
  • Overcast at 5,000' AGL
Temporary Apr-20 @ 20:00 - Apr-20 @ 23:00
Wind
Variable at 20 knots
 Gusting to 35 knots
Clouds
  • Broken at 5,000' AGL
Conditions
  • Light Thunderstorm
  • Light Rain
From Apr-20 @ 23:00 - Apr-21 @ 01:00
Wind Visibility
220° at 18 knots
 Gusting to 25 knots
Greater than 6 miles
Clouds
  • Scattered at 4,500' AGL
  • Broken at 7,000' AGL
From Apr-21 @ 01:00 - Apr-21 @ 06:00
Wind Visibility
50° at 10 knots Greater than 6 miles
Clouds
  • Scattered at 7,000' AGL
From Apr-21 @ 06:00 - Apr-21 @ 15:00
Wind Visibility
330° at 8 knots Greater than 6 miles
Clouds
  • Broken at 10,000' AGL
From Apr-21 @ 15:00 - Apr-21 @ 18:00
Wind Visibility
350° at 10 knots Greater than 6 miles
Clouds
  • Scattered at 10,000' AGL